sensor_id;sensor_type;location;lat;lon;timestamp;P1;durP1;ratioP1;P2;durP2;ratioP2
12587;SDS011;6359;51.450;7.346;2023-02-28T00:00:00;12.17;;;5.60;;
12587;SDS011;6359;51.450;7.346;2023-02-28T00:02:33;11.87;;;5.67;;
12587;SDS011;6359;51.450;7.346;2023-02-28T00:05:00;10.27;;;5.60;;
12587;SDS011;6359;51.450;7.346;2023-02-28T00:07:28;9.73;;;5.20;;
12587;SDS011;6359;51.450;7.346;2023-02-28T00:09:55;7.80;;;4.97;;
12587;SDS011;6359;51.450;7.346;2023-02-28T00:12:22;9.10;;;5.17;;
12587;SDS011;6359;51.450;7.346;2023-02-28T00:14:51;8.27;;;5.17;;
12587;SDS011;6359;51.450;7.346;2023-02-28T00:17:18;6.93;;;4.87;;
12587;SDS011;6359;51.450;7.346;2023-02-28T00:19:46;6.00;;;4.83;;
12587;SDS011;6359;51.450;7.346;2023-02-28T00:22:13;6.23;;;4.27;;
12587;SDS011;6359;51.450;7.346;2023-02-28T00:24:40;8.73;;;4.23;;
12587;SDS011;6359;51.450;7.346;2023-02-28T00:27:07;5.93;;;4.10;;
12587;SDS011;6359;51.450;7.346;2023-02-28T00:29:34;6.70;;;3.63;;
12587;SDS011;6359;51.450;7.346;2023-02-28T00:32:03;7.03;;;3.93;;
12587;SDS011;6359;51.450;7.346;2023-02-28T00:34:30;5.83;;;3.77;;
12587;SDS011;6359;51.450;7.346;2023-02-28T00:37:03;8.13;;;3.80;;
12587;SDS011;6359;51.450;7.346;2023-02-28T00:39:33;4.03;;;3.43;;
12587;SDS011;6359;51.450;7.346;2023-02-28T00:42:00;11.00;;;3.80;;
12587;SDS011;6359;51.450;7.346;2023-02-28T00:44:27;4.73;;;3.43;;
12587;SDS011;6359;51.450;7.346;2023-02-28T00:46:54;5.80;;;3.50;;
12587;SDS011;6359;51.450;7.346;2023-02-28T00:49:23;6.00;;;3.50;;
12587;SDS011;6359;51.450;7.346;2023-02-28T00:51:51;6.87;;;3.60;;
12587;SDS011;6359;51.450;7.346;2023-02-28T00:54:18;6.87;;;3.40;;
12587;SDS011;6359;51.450;7.346;2023-02-28T00:56:45;6.03;;;3.83;;
12587;SDS011;6359;51.450;7.346;2023-02-28T00:59:12;5.03;;;3.57;;
12587;SDS011;6359;51.450;7.346;2023-02-28T01:01:39;6.80;;;4.27;;
12587;SDS011;6359;51.450;7.346;2023-02-28T01:04:06;11.03;;;4.07;;
12587;SDS011;6359;51.450;7.346;2023-02-28T01:06:35;7.23;;;3.73;;
12587;SDS011;6359;51.450;7.346;2023-02-28T01:09:03;5.20;;;3.60;;
12587;SDS011;6359;51.450;7.346;2023-02-28T01:11:30;7.83;;;3.70;;
12587;SDS011;6359;51.450;7.346;2023-02-28T01:13:58;7.23;;;3.80;;
12587;SDS011;6359;51.450;7.346;2023-02-28T01:16:25;6.13;;;3.73;;
12587;SDS011;6359;51.450;7.346;2023-02-28T01:18:52;5.73;;;3.43;;
12587;SDS011;6359;51.450;7.346;2023-02-28T01:21:20;10.70;;;4.20;;
12587;SDS011;6359;51.450;7.346;2023-02-28T01:23:49;4.27;;;3.57;;
12587;SDS011;6359;51.450;7.346;2023-02-28T01:26:18;6.63;;;3.67;;
12587;SDS011;6359;51.450;7.346;2023-02-28T01:28:46;4.53;;;3.50;;
12587;SDS011;6359;51.450;7.346;2023-02-28T01:31:14;6.17;;;3.60;;
12587;SDS011;6359;51.450;7.346;2023-02-28T01:33:41;7.37;;;4.10;;
12587;SDS011;6359;51.450;7.346;2023-02-28T01:36:09;6.90;;;3.60;;
12587;SDS011;6359;51.450;7.346;2023-02-28T01:38:38;8.10;;;3.97;;
12587;SDS011;6359;51.450;7.346;2023-02-28T01:41:07;6.17;;;3.83;;
12587;SDS011;6359;51.450;7.346;2023-02-28T01:46:19;8.30;;;3.80;;
12587;SDS011;6359;51.450;7.346;2023-02-28T01:48:46;6.27;;;3.40;;
12587;SDS011;6359;51.450;7.346;2023-02-28T01:51:18;8.30;;;3.60;;
12587;SDS011;6359;51.450;7.346;2023-02-28T01:53:49;4.23;;;3.50;;
12587;SDS011;6359;51.450;7.346;2023-02-28T01:56:20;5.43;;;3.57;;
12587;SDS011;6359;51.450;7.346;2023-02-28T01:58:50;8.67;;;4.10;;
12587;SDS011;6359;51.450;7.346;2023-02-28T02:01:18;5.60;;;3.87;;
12587;SDS011;6359;51.450;7.346;2023-02-28T02:03:47;7.70;;;4.50;;
12587;SDS011;6359;51.450;7.346;2023-02-28T02:06:20;6.40;;;4.10;;
12587;SDS011;6359;51.450;7.346;2023-02-28T02:08:48;6.40;;;4.30;;
12587;SDS011;6359;51.450;7.346;2023-02-28T02:11:16;9.23;;;4.90;;
12587;SDS011;6359;51.450;7.346;2023-02-28T02:13:54;7.23;;;5.20;;
12587;SDS011;6359;51.450;7.346;2023-02-28T02:16:42;9.30;;;4.60;;
12587;SDS011;6359;51.450;7.346;2023-02-28T02:22:32;5.27;;;3.80;;
12587;SDS011;6359;51.450;7.346;2023-02-28T02:25:24;7.20;;;4.83;;
12587;SDS011;6359;51.450;7.346;2023-02-28T02:31:09;7.47;;;4.13;;
12587;SDS011;6359;51.450;7.346;2023-02-28T02:34:15;7.33;;;4.17;;
12587;SDS011;6359;51.450;7.346;2023-02-28T02:36:58;5.67;;;3.60;;
12587;SDS011;6359;51.450;7.346;2023-02-28T02:39:34;5.40;;;4.23;;
12587;SDS011;6359;51.450;7.346;2023-02-28T02:42:09;6.40;;;4.33;;
12587;SDS011;6359;51.450;7.346;2023-02-28T02:44:40;6.10;;;4.03;;
12587;SDS011;6359;51.450;7.346;2023-02-28T02:47:13;6.37;;;3.53;;
12587;SDS011;6359;51.450;7.346;2023-02-28T02:49:45;5.50;;;3.60;;
12587;SDS011;6359;51.450;7.346;2023-02-28T02:52:15;5.87;;;4.10;;
12587;SDS011;6359;51.450;7.346;2023-02-28T02:54:46;8.50;;;4.27;;
12587;SDS011;6359;51.450;7.346;2023-02-28T02:57:20;7.23;;;4.27;;
12587;SDS011;6359;51.450;7.346;2023-02-28T02:59:49;6.53;;;4.60;;
12587;SDS011;6359;51.450;7.346;2023-02-28T03:02:19;6.13;;;4.37;;
12587;SDS011;6359;51.450;7.346;2023-02-28T03:04:50;7.27;;;4.37;;
12587;SDS011;6359;51.450;7.346;2023-02-28T03:07:19;8.67;;;4.77;;
12587;SDS011;6359;51.450;7.346;2023-02-28T03:09:50;8.43;;;4.60;;
12587;SDS011;6359;51.450;7.346;2023-02-28T03:12:18;8.17;;;4.80;;
12587;SDS011;6359;51.450;7.346;2023-02-28T03:14:50;7.47;;;4.93;;
12587;SDS011;6359;51.450;7.346;2023-02-28T03:20:26;9.10;;;4.37;;
12587;SDS011;6359;51.450;7.346;2023-02-28T03:23:03;7.37;;;4.37;;
12587;SDS011;6359;51.450;7.346;2023-02-28T03:25:41;6.30;;;3.90;;
12587;SDS011;6359;51.450;7.346;2023-02-28T03:28:18;9.97;;;4.17;;
12587;SDS011;6359;51.450;7.346;2023-02-28T03:30:51;7.60;;;3.70;;
12587;SDS011;6359;51.450;7.346;2023-02-28T03:33:21;6.93;;;4.47;;
12587;SDS011;6359;51.450;7.346;2023-02-28T03:35:54;5.13;;;4.33;;
12587;SDS011;6359;51.450;7.346;2023-02-28T03:38:26;6.47;;;4.10;;
12587;SDS011;6359;51.450;7.346;2023-02-28T03:40:58;8.03;;;4.77;;
12587;SDS011;6359;51.450;7.346;2023-02-28T03:43:30;7.60;;;4.33;;
12587;SDS011;6359;51.450;7.346;2023-02-28T03:46:01;5.33;;;3.47;;
12587;SDS011;6359;51.450;7.346;2023-02-28T03:48:36;5.03;;;4.23;;
12587;SDS011;6359;51.450;7.346;2023-02-28T03:51:08;5.13;;;4.27;;
12587;SDS011;6359;51.450;7.346;2023-02-28T03:53:39;9.37;;;3.93;;
12587;SDS011;6359;51.450;7.346;2023-02-28T03:56:11;7.23;;;4.00;;
12587;SDS011;6359;51.450;7.346;2023-02-28T03:58:43;4.40;;;3.80;;
12587;SDS011;6359;51.450;7.346;2023-02-28T04:01:15;5.83;;;3.70;;
12587;SDS011;6359;51.450;7.346;2023-02-28T04:03:46;8.33;;;4.07;;
12587;SDS011;6359;51.450;7.346;2023-02-28T04:06:15;6.20;;;4.27;;
12587;SDS011;6359;51.450;7.346;2023-02-28T04:08:44;5.60;;;4.00;;
12587;SDS011;6359;51.450;7.346;2023-02-28T04:11:15;7.00;;;4.57;;
12587;SDS011;6359;51.450;7.346;2023-02-28T04:13:45;4.57;;;3.60;;
12587;SDS011;6359;51.450;7.346;2023-02-28T04:16:13;11.23;;;4.67;;
12587;SDS011;6359;51.450;7.346;2023-02-28T04:18:40;9.03;;;4.47;;
12587;SDS011;6359;51.450;7.346;2023-02-28T04:21:08;7.17;;;4.20;;
12587;SDS011;6359;51.450;7.346;2023-02-28T04:23:36;6.53;;;4.10;;
12587;SDS011;6359;51.450;7.346;2023-02-28T04:26:03;5.33;;;3.70;;
12587;SDS011;6359;51.450;7.346;2023-02-28T04:28:30;5.37;;;3.93;;
12587;SDS011;6359;51.450;7.346;2023-02-28T04:30:58;6.53;;;4.50;;
12587;SDS011;6359;51.450;7.346;2023-02-28T04:33:27;6.83;;;3.90;;
12587;SDS011;6359;51.450;7.346;2023-02-28T04:35:58;10.13;;;3.77;;
12587;SDS011;6359;51.450;7.346;2023-02-28T04:38:25;4.87;;;3.77;;
12587;SDS011;6359;51.450;7.346;2023-02-28T04:40:56;4.50;;;3.57;;
12587;SDS011;6359;51.450;7.346;2023-02-28T04:43:23;7.37;;;3.80;;
12587;SDS011;6359;51.450;7.346;2023-02-28T04:45:50;6.73;;;4.20;;
12587;SDS011;6359;51.450;7.346;2023-02-28T04:48:17;5.50;;;3.60;;
12587;SDS011;6359;51.450;7.346;2023-02-28T04:50:44;6.77;;;4.00;;
12587;SDS011;6359;51.450;7.346;2023-02-28T04:53:10;5.67;;;3.50;;
12587;SDS011;6359;51.450;7.346;2023-02-28T04:55:37;4.30;;;3.50;;
12587;SDS011;6359;51.450;7.346;2023-02-28T04:58:07;6.50;;;3.40;;
12587;SDS011;6359;51.450;7.346;2023-02-28T05:00:34;3.97;;;3.20;;
12587;SDS011;6359;51.450;7.346;2023-02-28T05:03:00;6.00;;;3.80;;
12587;SDS011;6359;51.450;7.346;2023-02-28T05:05:27;8.73;;;3.63;;
12587;SDS011;6359;51.450;7.346;2023-02-28T05:07:54;8.37;;;3.33;;
12587;SDS011;6359;51.450;7.346;2023-02-28T05:10:22;4.60;;;3.57;;
12587;SDS011;6359;51.450;7.346;2023-02-28T05:12:49;6.67;;;3.77;;
12587;SDS011;6359;51.450;7.346;2023-02-28T05:15:17;5.47;;;4.00;;
12587;SDS011;6359;51.450;7.346;2023-02-28T05:17:44;7.47;;;4.10;;
12587;SDS011;6359;51.450;7.346;2023-02-28T05:20:11;6.00;;;3.60;;
12587;SDS011;6359;51.450;7.346;2023-02-28T05:22:39;4.37;;;3.70;;
12587;SDS011;6359;51.450;7.346;2023-02-28T05:25:08;3.57;;;3.10;;
12587;SDS011;6359;51.450;7.346;2023-02-28T05:27:37;5.60;;;4.00;;
12587;SDS011;6359;51.450;7.346;2023-02-28T05:30:04;5.67;;;4.30;;
12587;SDS011;6359;51.450;7.346;2023-02-28T05:32:36;6.20;;;4.20;;
12587;SDS011;6359;51.450;7.346;2023-02-28T05:35:04;6.10;;;4.20;;
12587;SDS011;6359;51.450;7.346;2023-02-28T05:37:31;14.03;;;3.93;;
12587;SDS011;6359;51.450;7.346;2023-02-28T05:39:58;7.23;;;3.80;;
12587;SDS011;6359;51.450;7.346;2023-02-28T05:42:25;8.43;;;4.20;;
12587;SDS011;6359;51.450;7.346;2023-02-28T05:44:52;6.67;;;4.10;;
12587;SDS011;6359;51.450;7.346;2023-02-28T05:47:18;6.97;;;4.13;;
12587;SDS011;6359;51.450;7.346;2023-02-28T05:49:47;7.97;;;4.33;;
12587;SDS011;6359;51.450;7.346;2023-02-28T05:52:14;12.60;;;4.67;;
12587;SDS011;6359;51.450;7.346;2023-02-28T05:54:41;10.10;;;5.10;;
12587;SDS011;6359;51.450;7.346;2023-02-28T05:57:07;6.47;;;4.20;;
12587;SDS011;6359;51.450;7.346;2023-02-28T05:59:34;5.07;;;3.93;;
12587;SDS011;6359;51.450;7.346;2023-02-28T06:02:04;6.60;;;4.80;;
12587;SDS011;6359;51.450;7.346;2023-02-28T06:04:32;6.33;;;4.20;;
12587;SDS011;6359;51.450;7.346;2023-02-28T06:07:00;7.07;;;4.57;;
12587;SDS011;6359;51.450;7.346;2023-02-28T06:09:28;9.70;;;4.80;;
12587;SDS011;6359;51.450;7.346;2023-02-28T06:11:57;9.07;;;4.70;;
12587;SDS011;6359;51.450;7.346;2023-02-28T06:14:24;7.43;;;5.07;;
12587;SDS011;6359;51.450;7.346;2023-02-28T06:16:51;7.20;;;4.37;;
12587;SDS011;6359;51.450;7.346;2023-02-28T06:19:18;7.37;;;4.60;;
12587;SDS011;6359;51.450;7.346;2023-02-28T06:21:48;5.63;;;4.57;;
12587;SDS011;6359;51.450;7.346;2023-02-28T06:24:17;5.40;;;4.03;;
12587;SDS011;6359;51.450;7.346;2023-02-28T06:26:44;5.17;;;3.83;;
12587;SDS011;6359;51.450;7.346;2023-02-28T06:29:11;9.17;;;4.43;;
12587;SDS011;6359;51.450;7.346;2023-02-28T06:31:42;7.37;;;3.97;;
12587;SDS011;6359;51.450;7.346;2023-02-28T06:34:09;10.60;;;4.77;;
12587;SDS011;6359;51.450;7.346;2023-02-28T06:36:36;9.53;;;4.20;;
12587;SDS011;6359;51.450;7.346;2023-02-28T06:39:03;7.33;;;4.20;;
12587;SDS011;6359;51.450;7.346;2023-02-28T06:41:32;6.87;;;4.50;;
12587;SDS011;6359;51.450;7.346;2023-02-28T06:44:03;9.03;;;6.07;;
12587;SDS011;6359;51.450;7.346;2023-02-28T06:46:30;9.23;;;4.57;;
12587;SDS011;6359;51.450;7.346;2023-02-28T06:48:58;20.17;;;5.40;;
12587;SDS011;6359;51.450;7.346;2023-02-28T06:51:25;8.40;;;4.53;;
12587;SDS011;6359;51.450;7.346;2023-02-28T06:53:52;10.97;;;5.20;;
12587;SDS011;6359;51.450;7.346;2023-02-28T06:56:19;6.80;;;4.90;;
12587;SDS011;6359;51.450;7.346;2023-02-28T06:58:47;6.63;;;4.40;;
12587;SDS011;6359;51.450;7.346;2023-02-28T07:01:15;14.67;;;4.73;;
12587;SDS011;6359;51.450;7.346;2023-02-28T07:03:42;8.57;;;4.33;;
12587;SDS011;6359;51.450;7.346;2023-02-28T07:06:09;8.63;;;5.20;;
12587;SDS011;6359;51.450;7.346;2023-02-28T07:08:36;8.57;;;4.87;;
12587;SDS011;6359;51.450;7.346;2023-02-28T07:11:05;9.77;;;5.30;;
12587;SDS011;6359;51.450;7.346;2023-02-28T07:13:32;6.57;;;5.37;;
12587;SDS011;6359;51.450;7.346;2023-02-28T07:16:00;10.67;;;5.53;;
12587;SDS011;6359;51.450;7.346;2023-02-28T07:18:29;7.30;;;5.13;;
12587;SDS011;6359;51.450;7.346;2023-02-28T07:20:56;11.57;;;5.67;;
12587;SDS011;6359;51.450;7.346;2023-02-28T07:23:24;7.90;;;5.33;;
12587;SDS011;6359;51.450;7.346;2023-02-28T07:25:51;9.17;;;5.43;;
12587;SDS011;6359;51.450;7.346;2023-02-28T07:28:18;8.67;;;5.50;;
12587;SDS011;6359;51.450;7.346;2023-02-28T07:30:45;6.70;;;4.80;;
12587;SDS011;6359;51.450;7.346;2023-02-28T07:33:14;9.10;;;5.13;;
12587;SDS011;6359;51.450;7.346;2023-02-28T07:35:41;8.37;;;5.07;;
12587;SDS011;6359;51.450;7.346;2023-02-28T07:38:08;10.93;;;4.80;;
12587;SDS011;6359;51.450;7.346;2023-02-28T07:40:35;8.60;;;4.70;;
12587;SDS011;6359;51.450;7.346;2023-02-28T07:43:02;8.90;;;4.40;;
12587;SDS011;6359;51.450;7.346;2023-02-28T07:45:30;10.97;;;4.97;;
12587;SDS011;6359;51.450;7.346;2023-02-28T07:47:59;4.87;;;3.90;;
12587;SDS011;6359;51.450;7.346;2023-02-28T07:50:28;6.30;;;4.53;;
12587;SDS011;6359;51.450;7.346;2023-02-28T07:52:55;5.23;;;3.70;;
12587;SDS011;6359;51.450;7.346;2023-02-28T07:55:23;6.70;;;3.53;;
12587;SDS011;6359;51.450;7.346;2023-02-28T07:57:50;8.07;;;3.87;;
12587;SDS011;6359;51.450;7.346;2023-02-28T08:00:17;8.83;;;3.87;;
12587;SDS011;6359;51.450;7.346;2023-02-28T08:02:44;7.10;;;3.40;;
12587;SDS011;6359;51.450;7.346;2023-02-28T08:05:11;5.43;;;3.47;;
12587;SDS011;6359;51.450;7.346;2023-02-28T08:07:39;7.23;;;3.30;;
12587;SDS011;6359;51.450;7.346;2023-02-28T08:10:07;8.80;;;3.13;;
12587;SDS011;6359;51.450;7.346;2023-02-28T08:12:35;5.03;;;3.13;;
12587;SDS011;6359;51.450;7.346;2023-02-28T08:15:02;4.10;;;3.03;;
12587;SDS011;6359;51.450;7.346;2023-02-28T08:17:29;4.23;;;2.87;;
12587;SDS011;6359;51.450;7.346;2023-02-28T08:19:56;7.28;;;2.97;;
12587;SDS011;6359;51.450;7.346;2023-02-28T08:22:23;4.63;;;3.33;;
12587;SDS011;6359;51.450;7.346;2023-02-28T08:24:51;7.20;;;3.20;;
12587;SDS011;6359;51.450;7.346;2023-02-28T08:27:18;8.90;;;3.13;;
12587;SDS011;6359;51.450;7.346;2023-02-28T08:29:45;5.38;;;3.13;;
12587;SDS011;6359;51.450;7.346;2023-02-28T08:32:12;9.38;;;3.72;;
12587;SDS011;6359;51.450;7.346;2023-02-28T08:34:39;4.83;;;3.50;;
12587;SDS011;6359;51.450;7.346;2023-02-28T08:37:06;3.85;;;2.83;;
12587;SDS011;6359;51.450;7.346;2023-02-28T08:39:33;8.40;;;3.10;;
12587;SDS011;6359;51.450;7.346;2023-02-28T08:42:03;7.43;;;2.75;;
12587;SDS011;6359;51.450;7.346;2023-02-28T08:44:30;7.57;;;3.05;;
12587;SDS011;6359;51.450;7.346;2023-02-28T08:46:57;5.75;;;2.67;;
12587;SDS011;6359;51.450;7.346;2023-02-28T08:49:24;7.57;;;2.65;;
12587;SDS011;6359;51.450;7.346;2023-02-28T08:51:51;5.35;;;2.90;;
12587;SDS011;6359;51.450;7.346;2023-02-28T08:54:19;7.53;;;2.80;;
12587;SDS011;6359;51.450;7.346;2023-02-28T08:56:45;3.72;;;2.70;;
12587;SDS011;6359;51.450;7.346;2023-02-28T08:59:14;7.03;;;3.13;;
12587;SDS011;6359;51.450;7.346;2023-02-28T09:01:41;3.95;;;2.70;;
12587;SDS011;6359;51.450;7.346;2023-02-28T09:04:09;3.70;;;2.67;;
12587;SDS011;6359;51.450;7.346;2023-02-28T09:06:36;4.95;;;2.22;;
12587;SDS011;6359;51.450;7.346;2023-02-28T09:09:04;6.45;;;2.13;;
12587;SDS011;6359;51.450;7.346;2023-02-28T09:11:31;7.13;;;2.20;;
12587;SDS011;6359;51.450;7.346;2023-02-28T09:13:59;7.10;;;2.53;;
12587;SDS011;6359;51.450;7.346;2023-02-28T09:16:30;4.47;;;2.17;;
12587;SDS011;6359;51.450;7.346;2023-02-28T09:18:57;4.85;;;2.00;;
12587;SDS011;6359;51.450;7.346;2023-02-28T09:21:24;5.50;;;2.58;;
12587;SDS011;6359;51.450;7.346;2023-02-28T09:23:51;6.32;;;2.40;;
12587;SDS011;6359;51.450;7.346;2023-02-28T09:26:19;6.00;;;2.42;;
12587;SDS011;6359;51.450;7.346;2023-02-28T09:28:48;5.07;;;2.58;;
12587;SDS011;6359;51.450;7.346;2023-02-28T09:31:17;5.57;;;2.33;;
12587;SDS011;6359;51.450;7.346;2023-02-28T09:33:48;6.22;;;2.33;;
12587;SDS011;6359;51.450;7.346;2023-02-28T09:36:15;4.30;;;2.20;;
12587;SDS011;6359;51.450;7.346;2023-02-28T09:38:42;3.03;;;2.50;;
12587;SDS011;6359;51.450;7.346;2023-02-28T09:41:11;6.47;;;2.63;;
12587;SDS011;6359;51.450;7.346;2023-02-28T09:43:42;4.18;;;2.60;;
12587;SDS011;6359;51.450;7.346;2023-02-28T09:46:14;3.97;;;2.05;;
12587;SDS011;6359;51.450;7.346;2023-02-28T09:48:53;3.20;;;2.10;;
12587;SDS011;6359;51.450;7.346;2023-02-28T09:51:30;4.32;;;2.08;;
12587;SDS011;6359;51.450;7.346;2023-02-28T09:54:02;4.32;;;1.90;;
12587;SDS011;6359;51.450;7.346;2023-02-28T09:56:31;2.92;;;1.88;;
12587;SDS011;6359;51.450;7.346;2023-02-28T09:59:02;2.58;;;1.52;;
12587;SDS011;6359;51.450;7.346;2023-02-28T10:01:37;5.03;;;1.90;;
12587;SDS011;6359;51.450;7.346;2023-02-28T10:04:12;1.95;;;1.75;;
12587;SDS011;6359;51.450;7.346;2023-02-28T10:06:54;3.88;;;1.50;;
12587;SDS011;6359;51.450;7.346;2023-02-28T10:09:23;1.70;;;1.50;;
12587;SDS011;6359;51.450;7.346;2023-02-28T10:11:53;1.85;;;1.58;;
12587;SDS011;6359;51.450;7.346;2023-02-28T10:14:26;2.78;;;1.70;;
12587;SDS011;6359;51.450;7.346;2023-02-28T10:16:56;3.05;;;1.50;;
12587;SDS011;6359;51.450;7.346;2023-02-28T10:19:30;3.35;;;2.00;;
12587;SDS011;6359;51.450;7.346;2023-02-28T10:22:01;1.67;;;1.40;;
12587;SDS011;6359;51.450;7.346;2023-02-28T10:24:36;2.55;;;1.23;;
12587;SDS011;6359;51.450;7.346;2023-02-28T10:27:12;4.68;;;1.50;;
12587;SDS011;6359;51.450;7.346;2023-02-28T10:29:42;2.55;;;1.35;;
12587;SDS011;6359;51.450;7.346;2023-02-28T10:32:10;2.65;;;1.50;;
12587;SDS011;6359;51.450;7.346;2023-02-28T10:34:42;1.40;;;1.30;;
12587;SDS011;6359;51.450;7.346;2023-02-28T10:37:10;1.60;;;1.50;;
12587;SDS011;6359;51.450;7.346;2023-02-28T10:39:39;1.85;;;1.70;;
12587;SDS011;6359;51.450;7.346;2023-02-28T10:42:18;1.45;;;1.35;;
12587;SDS011;6359;51.450;7.346;2023-02-28T10:44:53;3.15;;;1.60;;
12587;SDS011;6359;51.450;7.346;2023-02-28T10:47:32;1.88;;;1.33;;
12587;SDS011;6359;51.450;7.346;2023-02-28T10:50:03;1.27;;;1.17;;
12587;SDS011;6359;51.450;7.346;2023-02-28T10:52:33;2.05;;;1.50;;
12587;SDS011;6359;51.450;7.346;2023-02-28T10:55:14;7.22;;;1.65;;
12587;SDS011;6359;51.450;7.346;2023-02-28T10:57:46;3.08;;;1.33;;
12587;SDS011;6359;51.450;7.346;2023-02-28T11:00:15;3.00;;;1.80;;
12587;SDS011;6359;51.450;7.346;2023-02-28T11:02:44;3.45;;;1.70;;
12587;SDS011;6359;51.450;7.346;2023-02-28T11:05:26;1.65;;;1.45;;
12587;SDS011;6359;51.450;7.346;2023-02-28T11:07:55;4.70;;;1.58;;
12587;SDS011;6359;51.450;7.346;2023-02-28T11:10:28;2.45;;;1.80;;
12587;SDS011;6359;51.450;7.346;2023-02-28T11:12:59;2.53;;;1.67;;
12587;SDS011;6359;51.450;7.346;2023-02-28T11:15:28;5.72;;;1.70;;
12587;SDS011;6359;51.450;7.346;2023-02-28T11:17:57;4.38;;;1.65;;
12587;SDS011;6359;51.450;7.346;2023-02-28T11:20:28;2.33;;;1.67;;
12587;SDS011;6359;51.450;7.346;2023-02-28T11:22:57;2.42;;;1.77;;
12587;SDS011;6359;51.450;7.346;2023-02-28T11:25:26;5.07;;;1.67;;
12587;SDS011;6359;51.450;7.346;2023-02-28T11:27:57;1.52;;;1.40;;
12587;SDS011;6359;51.450;7.346;2023-02-28T11:30:30;2.83;;;1.70;;
12587;SDS011;6359;51.450;7.346;2023-02-28T11:33:00;3.55;;;1.73;;
12587;SDS011;6359;51.450;7.346;2023-02-28T11:35:30;7.75;;;1.77;;
12587;SDS011;6359;51.450;7.346;2023-02-28T11:38:01;3.13;;;1.75;;
12587;SDS011;6359;51.450;7.346;2023-02-28T11:40:30;2.28;;;1.60;;
12587;SDS011;6359;51.450;7.346;2023-02-28T11:43:13;2.78;;;2.00;;
12587;SDS011;6359;51.450;7.346;2023-02-28T11:45:55;6.82;;;1.80;;
12587;SDS011;6359;51.450;7.346;2023-02-28T11:48:33;3.90;;;1.77;;
12587;SDS011;6359;51.450;7.346;2023-02-28T11:51:15;2.45;;;1.63;;
12587;SDS011;6359;51.450;7.346;2023-02-28T11:53:51;1.80;;;1.50;;
12587;SDS011;6359;51.450;7.346;2023-02-28T11:56:35;1.83;;;1.60;;
12587;SDS011;6359;51.450;7.346;2023-02-28T11:59:18;3.35;;;1.77;;
12587;SDS011;6359;51.450;7.346;2023-02-28T12:02:03;2.70;;;1.67;;
12587;SDS011;6359;51.450;7.346;2023-02-28T12:04:49;2.15;;;1.65;;
12587;SDS011;6359;51.450;7.346;2023-02-28T12:07:28;2.30;;;1.75;;
12587;SDS011;6359;51.450;7.346;2023-02-28T12:10:04;3.33;;;1.83;;
12587;SDS011;6359;51.450;7.346;2023-02-28T12:12:46;2.00;;;1.90;;
12587;SDS011;6359;51.450;7.346;2023-02-28T12:15:38;1.70;;;1.60;;
12587;SDS011;6359;51.450;7.346;2023-02-28T12:18:22;2.67;;;1.60;;
12587;SDS011;6359;51.450;7.346;2023-02-28T12:21:02;3.08;;;1.75;;
12587;SDS011;6359;51.450;7.346;2023-02-28T12:23:42;3.00;;;1.55;;
12587;SDS011;6359;51.450;7.346;2023-02-28T12:26:19;3.50;;;2.22;;
12587;SDS011;6359;51.450;7.346;2023-02-28T12:28:57;1.40;;;1.30;;
12587;SDS011;6359;51.450;7.346;2023-02-28T12:31:30;1.88;;;1.42;;
12587;SDS011;6359;51.450;7.346;2023-02-28T12:34:03;3.03;;;1.70;;
12587;SDS011;6359;51.450;7.346;2023-02-28T12:36:34;3.47;;;2.42;;
12587;SDS011;6359;51.450;7.346;2023-02-28T12:39:05;3.35;;;1.70;;
12587;SDS011;6359;51.450;7.346;2023-02-28T12:41:39;4.20;;;1.77;;
12587;SDS011;6359;51.450;7.346;2023-02-28T12:44:09;3.50;;;1.98;;
12587;SDS011;6359;51.450;7.346;2023-02-28T12:46:41;1.77;;;1.67;;
12587;SDS011;6359;51.450;7.346;2023-02-28T12:49:10;3.70;;;1.63;;
12587;SDS011;6359;51.450;7.346;2023-02-28T12:51:41;1.80;;;1.70;;
12587;SDS011;6359;51.450;7.346;2023-02-28T12:54:14;6.38;;;3.92;;
12587;SDS011;6359;51.450;7.346;2023-02-28T12:56:47;2.28;;;1.80;;
12587;SDS011;6359;51.450;7.346;2023-02-28T12:59:22;5.00;;;3.42;;
12587;SDS011;6359;51.450;7.346;2023-02-28T13:01:57;2.00;;;1.80;;
12587;SDS011;6359;51.450;7.346;2023-02-28T13:04:32;2.92;;;2.25;;
12587;SDS011;6359;51.450;7.346;2023-02-28T13:07:12;5.45;;;1.80;;
12587;SDS011;6359;51.450;7.346;2023-02-28T13:09:58;3.55;;;2.13;;
12587;SDS011;6359;51.450;7.346;2023-02-28T13:12:27;3.83;;;2.67;;
12587;SDS011;6359;51.450;7.346;2023-02-28T13:15:01;4.63;;;2.00;;
12587;SDS011;6359;51.450;7.346;2023-02-28T13:17:31;3.47;;;1.98;;
12587;SDS011;6359;51.450;7.346;2023-02-28T13:19:59;2.22;;;1.83;;
12587;SDS011;6359;51.450;7.346;2023-02-28T13:22:37;2.90;;;1.88;;
12587;SDS011;6359;51.450;7.346;2023-02-28T13:31:30;8.57;;;2.08;;
12587;SDS011;6359;51.450;7.346;2023-02-28T13:34:11;4.13;;;2.90;;
12587;SDS011;6359;51.450;7.346;2023-02-28T13:36:40;2.20;;;2.00;;
12587;SDS011;6359;51.450;7.346;2023-02-28T13:42:23;4.20;;;2.08;;
12587;SDS011;6359;51.450;7.346;2023-02-28T13:47:52;2.30;;;2.10;;
12587;SDS011;6359;51.450;7.346;2023-02-28T13:50:21;2.78;;;2.47;;
12587;SDS011;6359;51.450;7.346;2023-02-28T13:52:56;4.85;;;2.40;;
12587;SDS011;6359;51.450;7.346;2023-02-28T13:55:33;2.13;;;1.92;;
12587;SDS011;6359;51.450;7.346;2023-02-28T13:58:07;2.65;;;2.00;;
12587;SDS011;6359;51.450;7.346;2023-02-28T14:00:43;3.55;;;2.15;;
12587;SDS011;6359;51.450;7.346;2023-02-28T14:03:28;2.75;;;1.92;;
12587;SDS011;6359;51.450;7.346;2023-02-28T14:06:14;4.30;;;2.10;;
12587;SDS011;6359;51.450;7.346;2023-02-28T14:08:52;3.75;;;2.13;;
12587;SDS011;6359;51.450;7.346;2023-02-28T14:11:27;2.05;;;1.92;;
12587;SDS011;6359;51.450;7.346;2023-02-28T14:13:56;2.92;;;2.00;;
12587;SDS011;6359;51.450;7.346;2023-02-28T14:16:24;2.30;;;1.77;;
12587;SDS011;6359;51.450;7.346;2023-02-28T14:19:02;3.88;;;2.30;;
12587;SDS011;6359;51.450;7.346;2023-02-28T14:21:38;2.75;;;2.25;;
12587;SDS011;6359;51.450;7.346;2023-02-28T14:24:28;2.80;;;2.22;;
12587;SDS011;6359;51.450;7.346;2023-02-28T14:27:21;4.22;;;2.20;;
12587;SDS011;6359;51.450;7.346;2023-02-28T14:33:23;3.83;;;2.15;;
12587;SDS011;6359;51.450;7.346;2023-02-28T14:36:01;3.85;;;2.58;;
12587;SDS011;6359;51.450;7.346;2023-02-28T14:38:35;3.78;;;2.63;;
12587;SDS011;6359;51.450;7.346;2023-02-28T14:41:12;4.22;;;2.00;;
12587;SDS011;6359;51.450;7.346;2023-02-28T14:43:48;3.50;;;2.42;;
12587;SDS011;6359;51.450;7.346;2023-02-28T14:46:17;6.78;;;3.30;;
12587;SDS011;6359;51.450;7.346;2023-02-28T14:48:45;3.75;;;2.58;;
12587;SDS011;6359;51.450;7.346;2023-02-28T14:51:17;4.97;;;2.28;;
12587;SDS011;6359;51.450;7.346;2023-02-28T14:53:47;3.35;;;2.10;;
12587;SDS011;6359;51.450;7.346;2023-02-28T14:56:19;4.22;;;2.22;;
12587;SDS011;6359;51.450;7.346;2023-02-28T14:58:50;4.15;;;2.20;;
12587;SDS011;6359;51.450;7.346;2023-02-28T15:01:19;4.05;;;2.33;;
12587;SDS011;6359;51.450;7.346;2023-02-28T15:03:47;2.30;;;2.10;;
12587;SDS011;6359;51.450;7.346;2023-02-28T15:06:16;2.55;;;2.35;;
12587;SDS011;6359;51.450;7.346;2023-02-28T15:08:43;4.72;;;3.33;;
12587;SDS011;6359;51.450;7.346;2023-02-28T15:11:13;5.00;;;2.55;;
12587;SDS011;6359;51.450;7.346;2023-02-28T15:13:45;4.00;;;2.35;;
12587;SDS011;6359;51.450;7.346;2023-02-28T15:16:14;4.40;;;2.80;;
12587;SDS011;6359;51.450;7.346;2023-02-28T15:18:46;2.90;;;2.40;;
12587;SDS011;6359;51.450;7.346;2023-02-28T15:21:18;6.95;;;2.88;;
12587;SDS011;6359;51.450;7.346;2023-02-28T15:23:48;2.55;;;2.35;;
12587;SDS011;6359;51.450;7.346;2023-02-28T15:26:19;3.03;;;2.42;;
12587;SDS011;6359;51.450;7.346;2023-02-28T15:28:57;5.43;;;2.38;;
12587;SDS011;6359;51.450;7.346;2023-02-28T15:31:27;4.68;;;2.42;;
12587;SDS011;6359;51.450;7.346;2023-02-28T15:33:56;3.25;;;2.75;;
12587;SDS011;6359;51.450;7.346;2023-02-28T15:36:26;4.00;;;2.60;;
12587;SDS011;6359;51.450;7.346;2023-02-28T15:38:57;3.88;;;3.20;;
12587;SDS011;6359;51.450;7.346;2023-02-28T15:41:24;4.93;;;2.53;;
12587;SDS011;6359;51.450;7.346;2023-02-28T15:46:55;3.42;;;2.22;;
12587;SDS011;6359;51.450;7.346;2023-02-28T15:49:26;5.32;;;2.40;;
12587;SDS011;6359;51.450;7.346;2023-02-28T15:51:57;4.40;;;2.05;;